Time;durP1;ratioP1;P1;durP2;ratioP2;P2;SDS_P1;SDS_P2;PMS_P1;PMS_P2;Temp;Humidity;BMP_temperature;BMP_pressure;BME280_temperature;BME280_humidity;BME280_pressure;Samples;Min_cycle;Max_cycle;Signal;HPM_P1;HPM_P2
2021/07/18 00:01:49;;;;;;;8.95;3.40;;;;;;;;;;5012728;28;20029;-68
2021/07/18 00:04:15;;;;;;;3.55;3.22;;;;;;;;;;5012716;28;20105;-69
2021/07/18 00:06:41;;;;;;;5.95;3.83;;;;;;;;;;5012488;28;20048;-69
2021/07/18 00:09:08;;;;;;;6.82;3.53;;;;;;;;;;5012653;28;20029;-69
2021/07/18 00:11:34;;;;;;;6.05;4.13;;;;;;;;;;5012875;28;20076;-69
2021/07/18 00:14:00;;;;;;;6.25;3.78;;;;;;;;;;5012555;28;20032;-67
2021/07/18 00:16:26;;;;;;;4.57;3.53;;;;;;;;;;5012542;28;20384;-67
2021/07/18 00:18:53;;;;;;;4.18;3.20;;;;;;;;;;5012721;28;20022;-67
2021/07/18 00:21:19;;;;;;;3.95;3.40;;;;;;;;;;5012399;28;20029;-68
2021/07/18 00:23:45;;;;;;;5.65;3.28;;;;;;;;;;5012757;28;20034;-67
2021/07/18 00:26:11;;;;;;;4.78;3.20;;;;;;;;;;5012903;28;20022;-68
2021/07/18 00:28:37;;;;;;;4.22;3.38;;;;;;;;;;5013921;28;20117;-68
2021/07/18 00:31:06;;;;;;;4.18;3.35;;;;;;;;;;5016387;28;20029;-68
2021/07/18 00:33:34;;;;;;;5.75;3.17;;;;;;;;;;5016597;28;20050;-67
2021/07/18 00:36:00;;;;;;;6.85;4.57;;;;;;;;;;5025561;28;20028;-67
2021/07/18 00:38:26;;;;;;;7.40;4.10;;;;;;;;;;5036001;28;20366;-67
2021/07/18 00:40:52;;;;;;;4.20;3.72;;;;;;;;;;5035923;28;20040;-67
2021/07/18 00:43:18;;;;;;;8.23;4.13;;;;;;;;;;5036044;28;20025;-67
2021/07/18 00:45:44;;;;;;;6.90;4.85;;;;;;;;;;5027119;28;20030;-66
2021/07/18 00:48:10;;;;;;;8.77;3.78;;;;;;;;;;5016131;28;20046;-67
2021/07/18 00:50:37;;;;;;;5.78;4.43;;;;;;;;;;5015965;28;20421;-67
2021/07/18 00:53:03;;;;;;;5.82;3.58;;;;;;;;;;5015866;28;20026;-67
2021/07/18 00:55:29;;;;;;;6.95;3.78;;;;;;;;;;5015907;28;20474;-68
2021/07/18 00:57:55;;;;;;;6.20;3.60;;;;;;;;;;5015910;28;20037;-68
2021/07/18 01:00:21;;;;;;;4.18;3.72;;;;;;;;;;5015622;28;20108;-67
2021/07/18 01:02:47;;;;;;;6.65;3.63;;;;;;;;;;5015839;28;20030;-68
2021/07/18 01:05:15;;;;;;;6.50;3.88;;;;;;;;;;5015835;28;20388;-68
2021/07/18 01:07:41;;;;;;;5.60;3.75;;;;;;;;;;5015678;28;20108;-68
2021/07/18 01:10:08;;;;;;;5.35;3.92;;;;;;;;;;5015720;28;20503;-68
2021/07/18 01:12:35;;;;;;;4.30;3.60;;;;;;;;;;5015736;28;20034;-68
2021/07/18 01:15:01;;;;;;;7.25;3.83;;;;;;;;;;5015469;28;20477;-69
2021/07/18 01:17:28;;;;;;;8.50;4.50;;;;;;;;;;5015522;28;20091;-68
2021/07/18 01:19:55;;;;;;;6.32;4.50;;;;;;;;;;5015927;28;20026;-69
2021/07/18 01:22:21;;;;;;;6.07;4.03;;;;;;;;;;5014157;28;20503;-68
2021/07/18 01:24:47;;;;;;;5.88;4.45;;;;;;;;;;5015770;28;20431;-68
2021/07/18 01:27:13;;;;;;;6.43;4.15;;;;;;;;;;5015469;28;20041;-68
2021/07/18 01:29:40;;;;;;;9.55;4.50;;;;;;;;;;5015602;28;20025;-68
2021/07/18 01:32:06;;;;;;;6.10;4.20;;;;;;;;;;5015546;28;20037;-67
2021/07/18 01:34:32;;;;;;;7.28;4.55;;;;;;;;;;5014492;28;20022;-68
2021/07/18 01:36:58;;;;;;;9.00;5.18;;;;;;;;;;5015286;28;20045;-67
2021/07/18 01:39:25;;;;;;;8.43;5.05;;;;;;;;;;5014980;28;20022;-67
2021/07/18 01:41:57;;;;;;;6.22;4.97;;;;;;;;;;5014527;28;20031;-67
2021/07/18 01:44:23;;;;;;;7.68;5.07;;;;;;;;;;5015327;28;20054;-67
2021/07/18 01:46:49;;;;;;;7.90;4.65;;;;;;;;;;5014993;28;20026;-68
2021/07/18 01:49:15;;;;;;;7.45;4.97;;;;;;;;;;5014974;28;20061;-68
2021/07/18 01:51:41;;;;;;;7.03;4.93;;;;;;;;;;5014891;28;20526;-69
2021/07/18 01:54:09;;;;;;;6.57;5.30;;;;;;;;;;5014884;28;20026;-67
2021/07/18 01:56:35;;;;;;;10.07;5.88;;;;;;;;;;5014786;28;20030;-68
2021/07/18 01:59:02;;;;;;;7.57;4.82;;;;;;;;;;5014930;28;20022;-67
2021/07/18 02:01:29;;;;;;;6.68;5.32;;;;;;;;;;5014725;28;20022;-67
2021/07/18 02:03:58;;;;;;;8.73;5.28;;;;;;;;;;5014691;28;20034;-68
2021/07/18 02:06:25;;;;;;;7.60;5.18;;;;;;;;;;5014623;28;20026;-67
2021/07/18 02:08:52;;;;;;;8.98;5.47;;;;;;;;;;5014648;28;20040;-69
2021/07/18 02:11:18;;;;;;;7.18;4.68;;;;;;;;;;5014503;28;20022;-67
2021/07/18 02:13:52;;;;;;;7.07;4.50;;;;;;;;;;5014265;28;20022;-67
2021/07/18 02:16:18;;;;;;;8.02;4.57;;;;;;;;;;5014415;28;20030;-67
2021/07/18 02:18:45;;;;;;;7.82;4.80;;;;;;;;;;5014529;28;20113;-67
2021/07/18 02:21:11;;;;;;;8.73;5.60;;;;;;;;;;5014295;28;20025;-67
2021/07/18 02:23:37;;;;;;;7.72;5.45;;;;;;;;;;5014302;28;20030;-67
2021/07/18 02:26:03;;;;;;;8.65;5.22;;;;;;;;;;5014402;28;20073;-67
2021/07/18 02:28:30;;;;;;;8.13;5.38;;;;;;;;;;5014113;28;20022;-68
2021/07/18 02:30:56;;;;;;;8.63;5.60;;;;;;;;;;5014143;28;20049;-67
2021/07/18 02:33:22;;;;;;;10.55;6.45;;;;;;;;;;5014112;28;20068;-67
2021/07/18 02:35:49;;;;;;;9.32;5.40;;;;;;;;;;5014018;28;20101;-68
2021/07/18 02:38:15;;;;;;;10.95;5.40;;;;;;;;;;5014109;28;20032;-67
2021/07/18 02:40:41;;;;;;;10.10;6.13;;;;;;;;;;5013755;28;20038;-67
2021/07/18 02:43:07;;;;;;;9.95;5.25;;;;;;;;;;5013940;28;20022;-67
2021/07/18 02:45:33;;;;;;;6.13;5.00;;;;;;;;;;5013875;28;20018;-67
2021/07/18 02:47:59;;;;;;;7.60;5.13;;;;;;;;;;5013830;28;20065;-68
2021/07/18 02:50:27;;;;;;;8.93;6.13;;;;;;;;;;5013846;28;20030;-68
2021/07/18 02:52:53;;;;;;;9.63;5.68;;;;;;;;;;5012759;28;20022;-67
2021/07/18 02:55:19;;;;;;;8.82;5.80;;;;;;;;;;5013470;28;20022;-67
2021/07/18 02:57:46;;;;;;;8.90;5.15;;;;;;;;;;5013747;28;20477;-68
2021/07/18 03:00:16;;;;;;;6.93;5.28;;;;;;;;;;5013563;28;20124;-66
2021/07/18 03:02:42;;;;;;;9.55;5.25;;;;;;;;;;5013578;28;20029;-66
2021/07/18 03:05:10;;;;;;;7.03;5.00;;;;;;;;;;5013599;28;20048;-67
2021/07/18 03:07:37;;;;;;;10.45;4.95;;;;;;;;;;5013862;28;20025;-67
2021/07/18 03:10:03;;;;;;;9.02;4.75;;;;;;;;;;5013325;28;20528;-67
2021/07/18 03:12:31;;;;;;;9.65;5.88;;;;;;;;;;5013504;28;20033;-67
2021/07/18 03:14:58;;;;;;;9.10;4.47;;;;;;;;;;5013585;28;20037;-68
2021/07/18 03:17:24;;;;;;;8.07;5.15;;;;;;;;;;5013328;28;20028;-67
2021/07/18 03:19:51;;;;;;;6.72;4.95;;;;;;;;;;5013216;28;20072;-67
2021/07/18 03:22:17;;;;;;;8.68;5.15;;;;;;;;;;5013553;28;20033;-67
2021/07/18 03:24:43;;;;;;;7.25;5.10;;;;;;;;;;5013040;28;20026;-67
2021/07/18 03:27:09;;;;;;;10.32;5.55;;;;;;;;;;5013251;28;20136;-67
2021/07/18 03:29:35;;;;;;;8.98;5.45;;;;;;;;;;5013058;28;20029;-68
2021/07/18 03:32:01;;;;;;;8.48;5.43;;;;;;;;;;5013139;28;20026;-67
2021/07/18 03:34:27;;;;;;;9.55;5.47;;;;;;;;;;5012975;28;20026;-67
2021/07/18 03:36:53;;;;;;;12.38;5.45;;;;;;;;;;5013069;28;20054;-67
2021/07/18 03:39:19;;;;;;;8.57;5.53;;;;;;;;;;5014552;28;20088;-68
2021/07/18 03:41:46;;;;;;;8.30;5.00;;;;;;;;;;5032882;28;20037;-67
2021/07/18 03:44:12;;;;;;;8.35;5.47;;;;;;;;;;5032165;28;20399;-67
2021/07/18 03:46:38;;;;;;;6.63;4.55;;;;;;;;;;5032563;28;20021;-66
2021/07/18 03:49:04;;;;;;;9.38;5.07;;;;;;;;;;5031677;28;20030;-67
2021/07/18 03:51:30;;;;;;;8.25;4.68;;;;;;;;;;5032348;28;20140;-67
2021/07/18 03:53:56;;;;;;;7.85;5.47;;;;;;;;;;5031558;28;20025;-67
2021/07/18 03:56:22;;;;;;;8.65;4.57;;;;;;;;;;5032645;28;20061;-67
2021/07/18 03:58:52;;;;;;;6.57;4.47;;;;;;;;;;5031170;28;20108;-67
2021/07/18 04:01:18;;;;;;;12.05;4.93;;;;;;;;;;5032026;28;20388;-67
2021/07/18 04:03:47;;;;;;;7.43;4.63;;;;;;;;;;5031565;28;20052;-66
2021/07/18 04:06:16;;;;;;;7.47;4.85;;;;;;;;;;5032493;28;20037;-67
2021/07/18 04:08:42;;;;;;;10.52;5.03;;;;;;;;;;5031989;28;20029;-67
2021/07/18 04:11:09;;;;;;;8.68;5.07;;;;;;;;;;5031836;28;20029;-67
2021/07/18 04:13:35;;;;;;;9.82;5.05;;;;;;;;;;5012413;28;20477;-67
2021/07/18 04:16:01;;;;;;;8.02;5.78;;;;;;;;;;5021391;28;20030;-68
2021/07/18 04:18:28;;;;;;;8.55;4.80;;;;;;;;;;5031525;28;20030;-68
2021/07/18 04:20:54;;;;;;;6.30;4.47;;;;;;;;;;5031613;28;20025;-67
2021/07/18 04:23:20;;;;;;;7.68;4.88;;;;;;;;;;5031603;28;20038;-67
2021/07/18 04:25:46;;;;;;;8.15;4.82;;;;;;;;;;5014490;28;20025;-68
2021/07/18 04:28:13;;;;;;;7.53;4.35;;;;;;;;;;5032259;28;20026;-66
2021/07/18 04:30:39;;;;;;;6.68;4.43;;;;;;;;;;5032181;28;20504;-68
2021/07/18 04:33:05;;;;;;;7.50;4.65;;;;;;;;;;5031083;28;20037;-69
2021/07/18 04:35:31;;;;;;;9.82;5.07;;;;;;;;;;5017826;28;20491;-67
2021/07/18 04:37:57;;;;;;;5.93;3.80;;;;;;;;;;5012367;28;20045;-67
2021/07/18 04:40:26;;;;;;;10.68;4.57;;;;;;;;;;5025746;28;20037;-67
2021/07/18 04:42:52;;;;;;;7.07;4.40;;;;;;;;;;5032000;28;20025;-67
2021/07/18 04:45:18;;;;;;;8.50;4.40;;;;;;;;;;5031321;28;20040;-67
2021/07/18 04:47:48;;;;;;;6.15;4.18;;;;;;;;;;5031235;28;20026;-68
2021/07/18 04:50:14;;;;;;;13.57;4.90;;;;;;;;;;5031616;28;20034;-67
2021/07/18 04:52:40;;;;;;;5.28;3.70;;;;;;;;;;5031488;28;20037;-67
2021/07/18 04:55:07;;;;;;;7.25;4.32;;;;;;;;;;5031304;28;20120;-68
2021/07/18 04:57:33;;;;;;;8.07;4.10;;;;;;;;;;5031657;28;20037;-68
2021/07/18 04:59:59;;;;;;;5.95;3.83;;;;;;;;;;5031644;28;20121;-68
2021/07/18 05:02:25;;;;;;;6.82;4.35;;;;;;;;;;5031381;28;20076;-67
2021/07/18 05:04:54;;;;;;;4.78;4.00;;;;;;;;;;5048200;28;20025;-68
2021/07/18 05:07:20;;;;;;;7.70;3.85;;;;;;;;;;5051867;28;20087;-67
2021/07/18 05:09:46;;;;;;;5.85;3.53;;;;;;;;;;5035841;28;20384;-67
2021/07/18 05:12:12;;;;;;;6.88;3.60;;;;;;;;;;5031548;28;20105;-67
2021/07/18 05:14:38;;;;;;;6.13;3.13;;;;;;;;;;5031218;28;20033;-68
2021/07/18 05:17:04;;;;;;;3.90;3.20;;;;;;;;;;5034765;28;20051;-67
2021/07/18 05:19:30;;;;;;;4.90;2.70;;;;;;;;;;5035181;28;20025;-68
2021/07/18 05:21:57;;;;;;;6.40;2.85;;;;;;;;;;5033654;28;20436;-67
2021/07/18 05:24:24;;;;;;;4.35;2.80;;;;;;;;;;5034809;28;20025;-67
2021/07/18 05:26:52;;;;;;;4.72;2.88;;;;;;;;;;5035200;28;20025;-67
2021/07/18 05:29:18;;;;;;;4.88;2.65;;;;;;;;;;5034726;28;20028;-67
2021/07/18 05:31:45;;;;;;;3.45;3.13;;;;;;;;;;5034847;28;20025;-68
2021/07/18 05:34:11;;;;;;;6.32;3.40;;;;;;;;;;5034295;28;20032;-67
2021/07/18 05:36:37;;;;;;;5.68;3.13;;;;;;;;;;5026243;28;20029;-68
2021/07/18 05:39:04;;;;;;;3.85;2.85;;;;;;;;;;5035200;28;20053;-67
2021/07/18 05:41:31;;;;;;;5.63;2.63;;;;;;;;;;5034940;28;20088;-67
2021/07/18 05:43:57;;;;;;;4.60;2.85;;;;;;;;;;5034850;28;20030;-67
2021/07/18 05:46:23;;;;;;;4.82;2.60;;;;;;;;;;5034725;28;20022;-68
2021/07/18 05:48:49;;;;;;;5.97;2.50;;;;;;;;;;5033954;28;20021;-67
2021/07/18 05:51:15;;;;;;;2.90;2.30;;;;;;;;;;5034031;28;20037;-67
2021/07/18 05:53:41;;;;;;;5.97;2.70;;;;;;;;;;5029518;28;20036;-68
2021/07/18 05:56:08;;;;;;;4.72;2.47;;;;;;;;;;5034251;28;20029;-67
2021/07/18 05:58:34;;;;;;;4.13;2.40;;;;;;;;;;5026223;28;20104;-68
2021/07/18 06:01:00;;;;;;;8.20;2.50;;;;;;;;;;5034226;28;20033;-67
2021/07/18 06:03:27;;;;;;;3.53;2.30;;;;;;;;;;5036363;28;20027;-67
2021/07/18 06:05:53;;;;;;;5.47;2.83;;;;;;;;;;5033532;28;20033;-68
2021/07/18 06:08:19;;;;;;;5.75;2.63;;;;;;;;;;5034102;28;20033;-67
2021/07/18 06:10:45;;;;;;;2.70;2.22;;;;;;;;;;5034300;28;20072;-67
2021/07/18 06:13:11;;;;;;;2.17;1.95;;;;;;;;;;5034321;28;20025;-68
2021/07/18 06:15:37;;;;;;;3.42;2.20;;;;;;;;;;5034250;28;20443;-66
2021/07/18 06:18:03;;;;;;;5.22;3.13;;;;;;;;;;5034276;28;20025;-67
2021/07/18 06:20:29;;;;;;;2.92;2.15;;;;;;;;;;5034101;28;20040;-68
2021/07/18 06:22:55;;;;;;;5.18;2.20;;;;;;;;;;5034227;28;20057;-68
2021/07/18 06:25:22;;;;;;;4.47;2.20;;;;;;;;;;5034031;28;20021;-68
2021/07/18 06:27:48;;;;;;;4.95;2.40;;;;;;;;;;5033850;28;20033;-68
2021/07/18 06:30:14;;;;;;;2.53;2.20;;;;;;;;;;5034067;28;20101;-67
2021/07/18 06:32:41;;;;;;;3.63;2.03;;;;;;;;;;5033968;28;20049;-67
2021/07/18 06:35:08;;;;;;;4.70;2.50;;;;;;;;;;5033186;28;20025;-67
2021/07/18 06:37:34;;;;;;;3.50;2.40;;;;;;;;;;5012929;28;20026;-67
2021/07/18 06:40:01;;;;;;;5.20;2.13;;;;;;;;;;5013780;28;20502;-67
2021/07/18 06:42:27;;;;;;;2.63;2.15;;;;;;;;;;5013961;28;20097;-67
2021/07/18 06:44:53;;;;;;;4.50;2.30;;;;;;;;;;5012480;28;20037;-68
2021/07/18 06:47:19;;;;;;;4.70;2.20;;;;;;;;;;5013837;28;20608;-68
2021/07/18 06:49:45;;;;;;;4.82;2.40;;;;;;;;;;5013761;28;20052;-68
2021/07/18 06:52:11;;;;;;;4.05;3.40;;;;;;;;;;5014082;28;20041;-68
2021/07/18 06:54:38;;;;;;;2.72;2.15;;;;;;;;;;5013642;28;20088;-68
2021/07/18 06:57:04;;;;;;;3.72;2.20;;;;;;;;;;5013599;28;20026;-68
2021/07/18 06:59:30;;;;;;;4.18;2.00;;;;;;;;;;5013683;28;20025;-67
2021/07/18 07:01:56;;;;;;;3.55;2.40;;;;;;;;;;5013590;28;20044;-68
2021/07/18 07:04:22;;;;;;;2.40;2.08;;;;;;;;;;5013618;28;20446;-67
2021/07/18 07:06:48;;;;;;;4.82;2.40;;;;;;;;;;5013581;28;20108;-68
2021/07/18 07:09:14;;;;;;;3.17;2.38;;;;;;;;;;5013523;28;20080;-67
2021/07/18 07:11:40;;;;;;;5.80;2.50;;;;;;;;;;5013534;28;20030;-68
2021/07/18 07:14:06;;;;;;;6.90;2.30;;;;;;;;;;5013348;28;20030;-67
2021/07/18 07:16:32;;;;;;;3.40;2.03;;;;;;;;;;5013510;28;20068;-68
2021/07/18 07:18:59;;;;;;;2.75;1.92;;;;;;;;;;5013485;28;20022;-67
2021/07/18 07:21:25;;;;;;;2.92;2.47;;;;;;;;;;5013355;28;20022;-68
2021/07/18 07:23:51;;;;;;;3.53;2.33;;;;;;;;;;5013285;28;20022;-67
2021/07/18 07:26:17;;;;;;;5.32;2.20;;;;;;;;;;5013392;28;20037;-67
2021/07/18 07:28:43;;;;;;;3.58;2.30;;;;;;;;;;5013229;28;20369;-67
2021/07/18 07:31:09;;;;;;;3.38;2.60;;;;;;;;;;5013016;28;20030;-68
2021/07/18 07:33:35;;;;;;;4.10;2.58;;;;;;;;;;5013090;28;20037;-67
2021/07/18 07:36:03;;;;;;;3.47;2.20;;;;;;;;;;5013001;28;20506;-68
2021/07/18 07:38:29;;;;;;;3.03;2.10;;;;;;;;;;5012493;28;20033;-67
2021/07/18 07:40:55;;;;;;;3.00;2.20;;;;;;;;;;5012763;28;20041;-67
2021/07/18 07:43:21;;;;;;;7.47;2.88;;;;;;;;;;5013089;28;20107;-68
2021/07/18 07:45:47;;;;;;;5.22;2.47;;;;;;;;;;5011548;28;20036;-68
2021/07/18 07:48:13;;;;;;;3.45;2.30;;;;;;;;;;5012975;28;20061;-69
2021/07/18 07:50:40;;;;;;;6.53;2.53;;;;;;;;;;5013066;28;20018;-68
2021/07/18 07:53:06;;;;;;;6.45;2.75;;;;;;;;;;5012652;28;20032;-68
2021/07/18 07:55:33;;;;;;;3.67;2.45;;;;;;;;;;5012904;28;20022;-67
2021/07/18 07:57:59;;;;;;;5.05;3.00;;;;;;;;;;5012827;28;20600;-68
2021/07/18 08:00:25;;;;;;;3.38;2.63;;;;;;;;;;5012603;28;20022;-68
2021/07/18 08:02:51;;;;;;;3.72;2.53;;;;;;;;;;5011539;28;20412;-68
2021/07/18 08:05:18;;;;;;;5.28;2.58;;;;;;;;;;5013022;28;20431;-67
2021/07/18 08:07:45;;;;;;;3.58;2.47;;;;;;;;;;5012720;28;20072;-68
2021/07/18 08:10:12;;;;;;;3.30;2.42;;;;;;;;;;5012831;28;20126;-68
2021/07/18 08:12:38;;;;;;;3.65;2.55;;;;;;;;;;5012765;28;20026;-69
2021/07/18 08:15:06;;;;;;;3.38;2.90;;;;;;;;;;5012465;28;20026;-68
2021/07/18 08:17:32;;;;;;;4.43;2.70;;;;;;;;;;5012577;28;20025;-68
2021/07/18 08:19:59;;;;;;;5.88;3.08;;;;;;;;;;5012571;28;20014;-68
2021/07/18 08:22:25;;;;;;;4.72;2.50;;;;;;;;;;5012532;28;20123;-69
2021/07/18 08:24:51;;;;;;;3.67;2.70;;;;;;;;;;5012556;28;20026;-68
2021/07/18 08:27:17;;;;;;;4.00;2.60;;;;;;;;;;5012509;28;20116;-70
2021/07/18 08:29:43;;;;;;;4.72;2.40;;;;;;;;;;5012505;28;20033;-68
2021/07/18 08:32:10;;;;;;;4.53;2.70;;;;;;;;;;5012435;28;20033;-68
2021/07/18 08:34:36;;;;;;;4.63;2.97;;;;;;;;;;5012536;28;20416;-68
2021/07/18 08:37:02;;;;;;;5.63;2.63;;;;;;;;;;5012392;28;20050;-68
2021/07/18 08:39:28;;;;;;;3.75;2.78;;;;;;;;;;5012476;28;20072;-68
2021/07/18 08:41:54;;;;;;;4.38;2.30;;;;;;;;;;5012171;28;20042;-67
2021/07/18 08:44:24;;;;;;;5.25;2.67;;;;;;;;;;5012207;28;20034;-68
2021/07/18 08:46:50;;;;;;;3.20;2.33;;;;;;;;;;5012358;28;20560;-68
2021/07/18 08:49:16;;;;;;;3.40;2.50;;;;;;;;;;5012845;28;20041;-68
2021/07/18 08:51:42;;;;;;;4.03;2.60;;;;;;;;;;5016084;28;20392;-68
2021/07/18 08:54:08;;;;;;;4.90;2.40;;;;;;;;;;5016040;28;20065;-68
2021/07/18 08:56:36;;;;;;;3.08;2.25;;;;;;;;;;5015979;28;20025;-67
2021/07/18 08:59:09;;;;;;;3.55;2.25;;;;;;;;;;5015752;28;20473;-68
2021/07/18 09:01:40;;;;;;;2.33;2.10;;;;;;;;;;5015851;28;20495;-68
2021/07/18 09:04:06;;;;;;;3.00;2.50;;;;;;;;;;5015892;28;20129;-68
2021/07/18 09:06:39;;;;;;;4.63;2.60;;;;;;;;;;5015788;28;20041;-68
2021/07/18 09:09:07;;;;;;;3.67;3.00;;;;;;;;;;5015723;28;20404;-68
2021/07/18 09:11:33;;;;;;;4.50;2.72;;;;;;;;;;5015805;28;20036;-68
2021/07/18 09:14:01;;;;;;;5.35;2.60;;;;;;;;;;5015421;28;20022;-69
2021/07/18 09:16:31;;;;;;;5.38;2.95;;;;;;;;;;5015653;28;20690;-68
2021/07/18 09:19:16;;;;;;;4.28;2.85;;;;;;;;;;5015834;28;20030;-68
2021/07/18 09:22:06;;;;;;;4.88;3.13;;;;;;;;;;5015673;28;20480;-68
2021/07/18 09:24:35;;;;;;;6.93;3.70;;;;;;;;;;5015733;28;20385;-68
2021/07/18 09:27:07;;;;;;;8.15;3.95;;;;;;;;;;5016853;28;20030;-68
2021/07/18 09:29:34;;;;;;;8.15;4.07;;;;;;;;;;5015459;28;20026;-68
2021/07/18 09:32:04;;;;;;;9.23;4.43;;;;;;;;;;5015638;28;20106;-68
2021/07/18 09:34:37;;;;;;;6.00;4.47;;;;;;;;;;5015654;28;20025;-68
2021/07/18 09:37:04;;;;;;;10.20;4.40;;;;;;;;;;5015677;28;20018;-69
2021/07/18 09:39:30;;;;;;;6.60;4.35;;;;;;;;;;5013954;28;20392;-68
2021/07/18 09:41:57;;;;;;;7.25;4.35;;;;;;;;;;5014788;28;20038;-68
2021/07/18 09:44:24;;;;;;;8.80;4.63;;;;;;;;;;5015055;28;20078;-68
2021/07/18 09:46:50;;;;;;;6.80;4.40;;;;;;;;;;5015015;28;20036;-68
2021/07/18 09:49:35;;;;;;;5.57;4.13;;;;;;;;;;5014966;28;20084;-68
2021/07/18 09:52:01;;;;;;;;;;;;;;;;;;5015629;28;20025;-68
2021/07/18 09:54:31;;;;;;;5.65;3.80;;;;;;;;;;5014741;28;20494;-67
2021/07/18 09:56:57;;;;;;;8.40;3.78;;;;;;;;;;5015248;28;20026;-69
2021/07/18 09:59:23;;;;;;;6.50;3.70;;;;;;;;;;5014777;28;20057;-68
2021/07/18 10:01:55;;;;;;;5.63;3.28;;;;;;;;;;5014160;28;20504;-68
2021/07/18 10:04:23;;;;;;;4.65;3.60;;;;;;;;;;5014817;28;20041;-67
2021/07/18 10:07:05;;;;;;;5.38;3.55;;;;;;;;;;5013466;28;20054;-68
2021/07/18 10:09:31;;;;;;;6.38;3.65;;;;;;;;;;5014689;28;20068;-68
2021/07/18 10:11:57;;;;;;;4.43;3.30;;;;;;;;;;5014413;28;20056;-68
2021/07/18 10:14:24;;;;;;;4.25;3.38;;;;;;;;;;5014463;28;20029;-68
2021/07/18 10:16:53;;;;;;;7.88;4.32;;;;;;;;;;5014381;28;20385;-67
2021/07/18 10:19:20;;;;;;;5.38;3.65;;;;;;;;;;5014412;28;20029;-68
2021/07/18 10:21:46;;;;;;;4.15;3.17;;;;;;;;;;5014385;28;20030;-68
2021/07/18 10:24:14;;;;;;;5.90;3.53;;;;;;;;;;5016052;28;20440;-68
2021/07/18 10:26:40;;;;;;;6.88;3.58;;;;;;;;;;5014211;28;20030;-69
2021/07/18 10:29:06;;;;;;;5.55;3.22;;;;;;;;;;5014297;28;20025;-67
2021/07/18 10:31:32;;;;;;;10.10;3.38;;;;;;;;;;5014401;28;20489;-70
2021/07/18 10:33:59;;;;;;;7.03;4.22;;;;;;;;;;5014200;28;20037;-69
2021/07/18 10:36:26;;;;;;;3.95;3.00;;;;;;;;;;5013936;28;20030;-68
2021/07/18 10:38:53;;;;;;;4.75;3.25;;;;;;;;;;5014120;28;20025;-69
2021/07/18 10:41:37;;;;;;;4.57;3.38;;;;;;;;;;5013751;28;20108;-69
2021/07/18 10:44:11;;;;;;;4.72;2.72;;;;;;;;;;5014034;28;20034;-69
2021/07/18 10:46:43;;;;;;;4.85;3.33;;;;;;;;;;5013886;28;20018;-68
2021/07/18 10:49:12;;;;;;;3.45;2.88;;;;;;;;;;5013921;28;20053;-69
2021/07/18 10:51:39;;;;;;;7.00;3.78;;;;;;;;;;5014058;28;20028;-69
2021/07/18 10:54:23;;;;;;;4.55;3.00;;;;;;;;;;5025364;28;20029;-69
2021/07/18 10:56:54;;;;;;;3.88;2.90;;;;;;;;;;5032750;28;20041;-69
2021/07/18 10:59:37;;;;;;;4.90;3.08;;;;;;;;;;5032513;28;20498;-68
2021/07/18 11:02:07;;;;;;;5.35;3.22;;;;;;;;;;5032774;28;20100;-66
2021/07/18 11:04:44;;;;;;;5.53;3.30;;;;;;;;;;5032701;28;20579;-69
2021/07/18 11:07:22;;;;;;;6.45;3.30;;;;;;;;;;5034019;28;20108;-68
2021/07/18 11:09:50;;;;;;;6.15;3.50;;;;;;;;;;5041800;28;20033;-69
2021/07/18 11:12:26;;;;;;;7.47;3.60;;;;;;;;;;5033751;28;20488;-68
2021/07/18 11:14:53;;;;;;;5.95;3.17;;;;;;;;;;5031985;28;20029;-69
2021/07/18 11:17:26;;;;;;;5.30;3.72;;;;;;;;;;5032889;28;20079;-69
2021/07/18 11:20:05;;;;;;;5.47;3.63;;;;;;;;;;5032788;28;20060;-69
2021/07/18 11:22:50;;;;;;;4.70;3.92;;;;;;;;;;5033013;28;20412;-69
2021/07/18 11:25:36;;;;;;;5.32;3.50;;;;;;;;;;5032263;28;20099;-68
2021/07/18 11:28:02;;;;;;;5.63;3.35;;;;;;;;;;5033067;28;20029;-69
2021/07/18 11:30:38;;;;;;;4.10;3.15;;;;;;;;;;5032420;28;20431;-68
2021/07/18 11:33:33;;;;;;;6.53;3.55;;;;;;;;;;5032498;28;20480;-69
2021/07/18 11:35:59;;;;;;;;;;;;;;;;;;5015374;28;20463;-69
2021/07/18 11:38:25;;;;;;;5.72;3.22;;;;;;;;;;5032445;28;20433;-69
2021/07/18 11:40:52;;;;;;;6.57;3.53;;;;;;;;;;5033454;28;20389;-69
2021/07/18 11:43:23;;;;;;;6.28;3.33;;;;;;;;;;5032965;28;20357;-68
2021/07/18 11:45:49;;;;;;;5.28;3.80;;;;;;;;;;5032443;28;20021;-67
2021/07/18 11:48:17;;;;;;;6.80;3.42;;;;;;;;;;5014220;28;20080;-68
2021/07/18 11:50:43;;;;;;;4.60;3.50;;;;;;;;;;5031834;28;20017;-69
2021/07/18 11:53:09;;;;;;;6.07;3.60;;;;;;;;;;5031638;28;20033;-68
2021/07/18 11:55:35;;;;;;;8.20;4.53;;;;;;;;;;5031989;28;20042;-69
2021/07/18 11:58:01;;;;;;;4.63;3.63;;;;;;;;;;5032065;28;20057;-68
2021/07/18 12:00:27;;;;;;;5.88;4.13;;;;;;;;;;5032161;28;20030;-68
2021/07/18 12:02:54;;;;;;;6.28;3.65;;;;;;;;;;5032089;28;20022;-68
2021/07/18 12:05:20;;;;;;;7.60;4.05;;;;;;;;;;5031622;28;20101;-68
2021/07/18 12:07:46;;;;;;;6.10;4.22;;;;;;;;;;5031657;28;20064;-68
2021/07/18 12:10:20;;;;;;;7.43;3.97;;;;;;;;;;5031944;28;20057;-69
2021/07/18 12:12:47;;;;;;;8.05;3.58;;;;;;;;;;5031502;28;20021;-69
2021/07/18 12:15:13;;;;;;;5.32;3.60;;;;;;;;;;5032160;28;20057;-68
2021/07/18 12:17:39;;;;;;;8.43;3.92;;;;;;;;;;5031795;28;20029;-68
2021/07/18 12:20:06;;;;;;;7.22;3.60;;;;;;;;;;5032287;28;20029;-69
2021/07/18 12:22:32;;;;;;;5.25;3.45;;;;;;;;;;5031736;28;20029;-68
2021/07/18 12:24:58;;;;;;;6.65;3.30;;;;;;;;;;5034040;28;20094;-69
2021/07/18 12:27:28;;;;;;;7.15;4.18;;;;;;;;;;5036084;28;20025;-69
2021/07/18 12:29:55;;;;;;;4.93;3.40;;;;;;;;;;5036065;28;20022;-69
2021/07/18 12:32:28;;;;;;;4.75;3.45;;;;;;;;;;5035928;28;20030;-69
2021/07/18 12:34:55;;;;;;;6.22;3.67;;;;;;;;;;5035066;28;20029;-70
2021/07/18 12:37:22;;;;;;;7.03;3.45;;;;;;;;;;5035036;28;20029;-68
2021/07/18 12:39:53;;;;;;;7.10;3.67;;;;;;;;;;5035818;28;20032;-69
2021/07/18 12:42:36;;;;;;;3.85;3.45;;;;;;;;;;5037035;28;20526;-70
2021/07/18 12:45:03;;;;;;;5.68;3.10;;;;;;;;;;5035166;28;20083;-69
2021/07/18 12:47:29;;;;;;;5.63;3.42;;;;;;;;;;5022784;28;20586;-70
2021/07/18 12:50:05;;;;;;;4.25;3.10;;;;;;;;;;5035544;28;20048;-69
2021/07/18 12:52:31;;;;;;;5.25;3.35;;;;;;;;;;5035213;28;20037;-69
2021/07/18 12:54:57;;;;;;;4.43;3.70;;;;;;;;;;5035399;28;20084;-69
2021/07/18 12:57:29;;;;;;;5.70;3.67;;;;;;;;;;5035756;28;20022;-69
2021/07/18 13:00:05;;;;;;;5.00;3.72;;;;;;;;;;5035291;28;20025;-70
2021/07/18 13:02:31;;;;;;;6.75;4.35;;;;;;;;;;5035748;28;20026;-68
2021/07/18 13:05:01;;;;;;;6.55;3.53;;;;;;;;;;5035799;28;20534;-70
2021/07/18 13:07:30;;;;;;;6.22;3.85;;;;;;;;;;5035117;28;20128;-69
2021/07/18 13:10:13;;;;;;;5.15;3.30;;;;;;;;;;5035429;28;20029;-69
2021/07/18 13:12:39;;;;;;;6.43;3.70;;;;;;;;;;5034828;28;20504;-69
2021/07/18 13:15:16;;;;;;;3.42;3.13;;;;;;;;;;5034529;28;20048;-69
2021/07/18 13:17:52;;;;;;;5.50;3.13;;;;;;;;;;5017257;28;20411;-69
2021/07/18 13:20:19;;;;;;;3.40;3.08;;;;;;;;;;5035324;28;20025;-70
2021/07/18 13:22:46;;;;;;;5.25;3.50;;;;;;;;;;5033503;28;20653;-69
2021/07/18 13:25:25;;;;;;;8.05;3.90;;;;;;;;;;5035248;28;20022;-70
2021/07/18 13:27:56;;;;;;;6.53;3.80;;;;;;;;;;5034877;28;20061;-70
2021/07/18 13:30:23;;;;;;;4.95;3.40;;;;;;;;;;5034555;28;20029;-68
2021/07/18 13:32:50;;;;;;;6.28;4.10;;;;;;;;;;5034538;28;20026;-69
2021/07/18 13:35:20;;;;;;;5.25;3.67;;;;;;;;;;5032054;28;20037;-68
2021/07/18 13:37:48;;;;;;;7.15;3.67;;;;;;;;;;5032375;28;20051;-68
2021/07/18 13:40:26;;;;;;;7.20;3.20;;;;;;;;;;5034017;28;20033;-68
2021/07/18 13:43:04;;;;;;;6.85;3.20;;;;;;;;;;5034936;28;20075;-69
2021/07/18 13:45:30;;;;;;;6.03;3.75;;;;;;;;;;5014965;28;20057;-68
2021/07/18 13:47:56;;;;;;;4.13;3.08;;;;;;;;;;5024069;28;20445;-67
2021/07/18 13:50:23;;;;;;;6.80;4.10;;;;;;;;;;5033997;28;20033;-70
2021/07/18 13:52:49;;;;;;;6.57;5.32;;;;;;;;;;5034978;28;20036;-69
2021/07/18 13:55:15;;;;;;;7.55;5.22;;;;;;;;;;5034226;28;20091;-68
2021/07/18 13:57:41;;;;;;;6.78;4.30;;;;;;;;;;5034601;28;20072;-69
2021/07/18 14:00:07;;;;;;;6.43;4.38;;;;;;;;;;5033963;28;20432;-68
2021/07/18 14:02:33;;;;;;;5.65;3.90;;;;;;;;;;5034389;28;20044;-70
2021/07/18 14:05:00;;;;;;;5.05;3.53;;;;;;;;;;5034228;28;20099;-69
2021/07/18 14:07:26;;;;;;;4.78;3.67;;;;;;;;;;5032853;28;20025;-69
2021/07/18 14:09:53;;;;;;;5.00;3.53;;;;;;;;;;5033718;28;20033;-70
2021/07/18 14:12:19;;;;;;;4.07;3.30;;;;;;;;;;5035746;28;20075;-69
2021/07/18 14:14:47;;;;;;;7.57;3.72;;;;;;;;;;5052274;28;20028;-69
2021/07/18 14:17:13;;;;;;;5.13;3.78;;;;;;;;;;5054316;28;20044;-70
2021/07/18 14:19:39;;;;;;;3.95;3.05;;;;;;;;;;5035454;28;20038;-70
2021/07/18 14:22:06;;;;;;;5.90;3.00;;;;;;;;;;5033835;28;20025;-70
2021/07/18 14:24:36;;;;;;;5.18;3.55;;;;;;;;;;5033942;28;20026;-70
2021/07/18 14:27:03;;;;;;;4.63;2.95;;;;;;;;;;5033408;28;20040;-71
2021/07/18 14:29:29;;;;;;;3.45;2.97;;;;;;;;;;5034153;28;20032;-70
2021/07/18 14:31:55;;;;;;;4.05;2.97;;;;;;;;;;5032937;28;20518;-70
2021/07/18 14:34:21;;;;;;;4.72;3.00;;;;;;;;;;5033088;28;20040;-70
2021/07/18 14:36:47;;;;;;;3.63;3.15;;;;;;;;;;5019672;28;20078;-70
2021/07/18 14:39:13;;;;;;;5.30;3.42;;;;;;;;;;5015333;28;20033;-70
2021/07/18 14:41:39;;;;;;;4.07;3.20;;;;;;;;;;5013592;28;20041;-70
2021/07/18 14:44:05;;;;;;;4.43;2.83;;;;;;;;;;5025828;28;20025;-70
2021/07/18 14:46:31;;;;;;;4.43;2.90;;;;;;;;;;5033249;28;20029;-70